sensor_id;sensor_type;location;lat;lon;timestamp;P1;P2;P0
26185;PMS7003;20067;48.764;9.176;2024-03-07T00:01:29;50.25;45.25;24.75
26185;PMS7003;20067;48.764;9.176;2024-03-07T00:03:54;58.00;49.75;29.25
26185;PMS7003;20067;48.764;9.176;2024-03-07T00:06:20;64.50;51.75;30.50
26185;PMS7003;20067;48.764;9.176;2024-03-07T00:08:46;54.50;44.50;23.50
26185;PMS7003;20067;48.764;9.176;2024-03-07T00:11:11;56.50;49.50;26.50
26185;PMS7003;20067;48.764;9.176;2024-03-07T00:13:37;55.50;45.75;26.50
26185;PMS7003;20067;48.764;9.176;2024-03-07T00:16:03;56.00;47.50;29.50
26185;PMS7003;20067;48.764;9.176;2024-03-07T00:18:29;58.75;49.50;33.00
26185;PMS7003;20067;48.764;9.176;2024-03-07T00:20:55;59.50;49.00;31.00
26185;PMS7003;20067;48.764;9.176;2024-03-07T00:23:20;55.50;45.75;30.75
26185;PMS7003;20067;48.764;9.176;2024-03-07T00:25:46;55.25;45.75;30.00
26185;PMS7003;20067;48.764;9.176;2024-03-07T00:28:15;55.50;47.00;31.50
26185;PMS7003;20067;48.764;9.176;2024-03-07T00:30:45;51.25;46.75;30.25
26185;PMS7003;20067;48.764;9.176;2024-03-07T00:33:13;43.50;40.75;25.00
26185;PMS7003;20067;48.764;9.176;2024-03-07T00:35:38;59.50;48.50;27.25
26185;PMS7003;20067;48.764;9.176;2024-03-07T00:38:04;53.00;45.50;28.00
26185;PMS7003;20067;48.764;9.176;2024-03-07T00:40:30;48.75;42.00;25.50
26185;PMS7003;20067;48.764;9.176;2024-03-07T00:42:57;53.75;46.50;30.50
26185;PMS7003;20067;48.764;9.176;2024-03-07T00:45:24;46.25;44.00;28.25
26185;PMS7003;20067;48.764;9.176;2024-03-07T00:47:49;55.25;46.00;30.00
26185;PMS7003;20067;48.764;9.176;2024-03-07T00:50:15;47.00;41.50;26.50
26185;PMS7003;20067;48.764;9.176;2024-03-07T00:52:41;48.25;45.50;26.00
26185;PMS7003;20067;48.764;9.176;2024-03-07T00:55:06;56.00;48.25;31.75
26185;PMS7003;20067;48.764;9.176;2024-03-07T00:57:35;50.50;39.50;23.50
26185;PMS7003;20067;48.764;9.176;2024-03-07T01:00:02;51.50;44.75;27.25
26185;PMS7003;20067;48.764;9.176;2024-03-07T01:02:28;51.00;44.75;26.00
26185;PMS7003;20067;48.764;9.176;2024-03-07T01:04:54;54.25;47.00;24.25
26185;PMS7003;20067;48.764;9.176;2024-03-07T01:07:20;59.75;50.75;28.50
26185;PMS7003;20067;48.764;9.176;2024-03-07T01:09:46;60.25;52.00;29.00
26185;PMS7003;20067;48.764;9.176;2024-03-07T01:12:12;49.75;42.00;24.75
26185;PMS7003;20067;48.764;9.176;2024-03-07T01:14:38;50.25;43.25;28.25
26185;PMS7003;20067;48.764;9.176;2024-03-07T01:17:04;53.75;45.50;26.00
26185;PMS7003;20067;48.764;9.176;2024-03-07T01:19:32;61.50;48.25;27.00
26185;PMS7003;20067;48.764;9.176;2024-03-07T01:21:58;59.00;49.75;31.25
26185;PMS7003;20067;48.764;9.176;2024-03-07T01:24:24;55.50;48.75;29.00
26185;PMS7003;20067;48.764;9.176;2024-03-07T01:26:50;59.50;48.50;29.00
26185;PMS7003;20067;48.764;9.176;2024-03-07T01:29:15;53.00;49.50;28.25
26185;PMS7003;20067;48.764;9.176;2024-03-07T01:31:41;46.00;43.00;24.75
26185;PMS7003;20067;48.764;9.176;2024-03-07T01:34:06;61.50;48.50;29.00
26185;PMS7003;20067;48.764;9.176;2024-03-07T01:36:32;52.25;45.25;26.00
26185;PMS7003;20067;48.764;9.176;2024-03-07T01:38:57;51.25;41.50;23.25
26185;PMS7003;20067;48.764;9.176;2024-03-07T01:41:23;55.50;50.25;29.75
26185;PMS7003;20067;48.764;9.176;2024-03-07T01:43:49;49.00;41.50;27.00
26185;PMS7003;20067;48.764;9.176;2024-03-07T01:46:14;50.50;45.50;28.25
26185;PMS7003;20067;48.764;9.176;2024-03-07T01:48:41;55.50;49.00;28.25
26185;PMS7003;20067;48.764;9.176;2024-03-07T01:51:06;53.50;48.25;28.00
26185;PMS7003;20067;48.764;9.176;2024-03-07T01:53:33;64.75;48.50;25.50
26185;PMS7003;20067;48.764;9.176;2024-03-07T01:56:00;57.50;48.00;24.75
26185;PMS7003;20067;48.764;9.176;2024-03-07T01:58:27;55.75;50.50;28.75
26185;PMS7003;20067;48.764;9.176;2024-03-07T02:00:55;62.00;47.50;25.25
26185;PMS7003;20067;48.764;9.176;2024-03-07T02:03:20;53.50;48.00;28.50
26185;PMS7003;20067;48.764;9.176;2024-03-07T02:05:46;60.00;52.00;28.00
26185;PMS7003;20067;48.764;9.176;2024-03-07T02:08:12;53.50;50.00;28.75
26185;PMS7003;20067;48.764;9.176;2024-03-07T02:10:39;50.25;47.00;23.75
26185;PMS7003;20067;48.764;9.176;2024-03-07T02:13:06;53.00;45.25;25.00
26185;PMS7003;20067;48.764;9.176;2024-03-07T02:15:31;56.75;50.00;29.00
26185;PMS7003;20067;48.764;9.176;2024-03-07T02:17:57;52.25;46.50;27.50
26185;PMS7003;20067;48.764;9.176;2024-03-07T02:20:23;53.25;49.50;27.25
26185;PMS7003;20067;48.764;9.176;2024-03-07T02:22:49;54.25;47.25;30.00
26185;PMS7003;20067;48.764;9.176;2024-03-07T02:25:15;62.00;49.75;29.25
26185;PMS7003;20067;48.764;9.176;2024-03-07T02:27:41;67.00;52.50;27.50
26185;PMS7003;20067;48.764;9.176;2024-03-07T02:30:07;52.50;45.25;28.00
26185;PMS7003;20067;48.764;9.176;2024-03-07T02:32:37;62.25;52.50;33.50
26185;PMS7003;20067;48.764;9.176;2024-03-07T02:35:06;52.25;46.75;29.00
26185;PMS7003;20067;48.764;9.176;2024-03-07T02:37:33;53.25;49.25;29.00
26185;PMS7003;20067;48.764;9.176;2024-03-07T02:39:59;60.75;50.50;29.25
26185;PMS7003;20067;48.764;9.176;2024-03-07T02:42:24;58.25;49.00;28.75
26185;PMS7003;20067;48.764;9.176;2024-03-07T02:44:50;53.50;49.25;29.00
26185;PMS7003;20067;48.764;9.176;2024-03-07T02:47:17;54.75;50.00;30.50
26185;PMS7003;20067;48.764;9.176;2024-03-07T02:49:43;58.25;48.25;29.50
26185;PMS7003;20067;48.764;9.176;2024-03-07T02:52:09;56.25;46.50;29.50
26185;PMS7003;20067;48.764;9.176;2024-03-07T02:54:35;56.75;45.50;29.00
26185;PMS7003;20067;48.764;9.176;2024-03-07T02:57:01;52.75;44.00;29.00
26185;PMS7003;20067;48.764;9.176;2024-03-07T02:59:26;61.00;51.25;31.25
26185;PMS7003;20067;48.764;9.176;2024-03-07T03:01:52;52.75;47.25;29.50
26185;PMS7003;20067;48.764;9.176;2024-03-07T03:04:18;52.75;44.75;26.50
26185;PMS7003;20067;48.764;9.176;2024-03-07T03:06:44;54.00;44.00;29.25
26185;PMS7003;20067;48.764;9.176;2024-03-07T03:09:10;62.50;51.00;29.00
26185;PMS7003;20067;48.764;9.176;2024-03-07T03:11:42;54.00;46.00;27.25
26185;PMS7003;20067;48.764;9.176;2024-03-07T03:14:08;61.75;54.75;33.25
26185;PMS7003;20067;48.764;9.176;2024-03-07T03:16:35;61.75;51.75;29.75
26185;PMS7003;20067;48.764;9.176;2024-03-07T03:19:01;61.50;50.75;31.00
26185;PMS7003;20067;48.764;9.176;2024-03-07T03:21:26;54.25;51.25;32.00
26185;PMS7003;20067;48.764;9.176;2024-03-07T03:23:52;62.50;54.50;32.50
26185;PMS7003;20067;48.764;9.176;2024-03-07T03:26:19;71.25;59.00;36.75
26185;PMS7003;20067;48.764;9.176;2024-03-07T03:28:46;71.50;56.50;34.25
26185;PMS7003;20067;48.764;9.176;2024-03-07T03:31:12;64.25;56.50;37.00
26185;PMS7003;20067;48.764;9.176;2024-03-07T03:33:39;74.00;58.33;37.00
26185;PMS7003;20067;48.764;9.176;2024-03-07T03:36:05;71.33;60.00;38.00
26185;PMS7003;20067;48.764;9.176;2024-03-07T03:38:32;74.33;59.33;38.33
26185;PMS7003;20067;48.764;9.176;2024-03-07T03:40:57;66.00;55.00;36.00
26185;PMS7003;20067;48.764;9.176;2024-03-07T03:43:23;78.67;63.00;39.00
26185;PMS7003;20067;48.764;9.176;2024-03-07T03:45:48;79.00;61.33;39.67
26185;PMS7003;20067;48.764;9.176;2024-03-07T03:48:14;67.00;58.00;38.00
26185;PMS7003;20067;48.764;9.176;2024-03-07T03:50:40;67.00;54.33;35.67
26185;PMS7003;20067;48.764;9.176;2024-03-07T03:53:06;66.25;56.75;34.75
26185;PMS7003;20067;48.764;9.176;2024-03-07T03:55:33;71.33;53.67;35.67
26185;PMS7003;20067;48.764;9.176;2024-03-07T03:57:59;70.50;57.25;35.00
26185;PMS7003;20067;48.764;9.176;2024-03-07T04:00:25;70.00;54.75;34.00
26185;PMS7003;20067;48.764;9.176;2024-03-07T04:02:50;83.00;59.50;37.75
26185;PMS7003;20067;48.764;9.176;2024-03-07T04:05:17;59.00;52.00;28.50
26185;PMS7003;20067;48.764;9.176;2024-03-07T04:07:45;66.00;55.50;30.25
26185;PMS7003;20067;48.764;9.176;2024-03-07T04:10:11;63.25;53.50;33.25
26185;PMS7003;20067;48.764;9.176;2024-03-07T04:12:38;58.50;51.50;33.50
26185;PMS7003;20067;48.764;9.176;2024-03-07T04:17:32;66.50;55.50;34.25
26185;PMS7003;20067;48.764;9.176;2024-03-07T04:20:02;67.00;52.75;30.50
26185;PMS7003;20067;48.764;9.176;2024-03-07T04:22:32;74.25;57.00;34.00
26185;PMS7003;20067;48.764;9.176;2024-03-07T04:24:59;65.25;54.75;33.00
26185;PMS7003;20067;48.764;9.176;2024-03-07T04:27:26;61.75;55.25;32.25
26185;PMS7003;20067;48.764;9.176;2024-03-07T04:29:52;60.00;50.75;27.00
26185;PMS7003;20067;48.764;9.176;2024-03-07T04:32:17;64.75;53.50;31.50
26185;PMS7003;20067;48.764;9.176;2024-03-07T04:34:46;67.50;53.25;31.25
26185;PMS7003;20067;48.764;9.176;2024-03-07T04:37:12;58.50;51.75;29.00
26185;PMS7003;20067;48.764;9.176;2024-03-07T04:39:40;57.00;52.00;28.00
26185;PMS7003;20067;48.764;9.176;2024-03-07T04:42:06;57.50;51.00;30.50
26185;PMS7003;20067;48.764;9.176;2024-03-07T04:44:34;71.00;54.50;33.25
26185;PMS7003;20067;48.764;9.176;2024-03-07T04:47:01;58.00;49.75;30.00
26185;PMS7003;20067;48.764;9.176;2024-03-07T04:49:29;64.50;47.00;28.50
26185;PMS7003;20067;48.764;9.176;2024-03-07T04:51:57;61.75;51.00;29.50
26185;PMS7003;20067;48.764;9.176;2024-03-07T04:54:23;62.75;53.75;32.50
26185;PMS7003;20067;48.764;9.176;2024-03-07T04:56:50;55.50;51.75;28.75
26185;PMS7003;20067;48.764;9.176;2024-03-07T04:59:17;62.00;52.75;29.00
26185;PMS7003;20067;48.764;9.176;2024-03-07T05:01:44;60.75;51.75;27.25
26185;PMS7003;20067;48.764;9.176;2024-03-07T05:04:11;61.25;52.75;31.25
26185;PMS7003;20067;48.764;9.176;2024-03-07T05:06:37;59.25;49.25;28.00
26185;PMS7003;20067;48.764;9.176;2024-03-07T05:09:03;62.75;52.00;28.50
26185;PMS7003;20067;48.764;9.176;2024-03-07T05:11:30;68.75;49.50;25.00
26185;PMS7003;20067;48.764;9.176;2024-03-07T05:13:56;69.00;52.25;28.25
26185;PMS7003;20067;48.764;9.176;2024-03-07T05:16:28;51.00;46.50;25.00
26185;PMS7003;20067;48.764;9.176;2024-03-07T05:18:55;49.50;46.75;26.25
26185;PMS7003;20067;48.764;9.176;2024-03-07T05:21:24;62.75;50.00;26.75
26185;PMS7003;20067;48.764;9.176;2024-03-07T05:24:08;61.75;52.25;32.25
26185;PMS7003;20067;48.764;9.176;2024-03-07T05:26:34;58.00;49.00;28.25
26185;PMS7003;20067;48.764;9.176;2024-03-07T05:29:06;60.25;50.75;27.50
26185;PMS7003;20067;48.764;9.176;2024-03-07T05:31:36;63.75;51.75;30.00
26185;PMS7003;20067;48.764;9.176;2024-03-07T05:34:03;65.50;54.75;27.50
26185;PMS7003;20067;48.764;9.176;2024-03-07T05:36:33;60.50;50.25;28.50
26185;PMS7003;20067;48.764;9.176;2024-03-07T05:38:59;55.25;48.75;28.00
26185;PMS7003;20067;48.764;9.176;2024-03-07T05:41:26;60.25;49.25;29.75
26185;PMS7003;20067;48.764;9.176;2024-03-07T05:43:54;62.75;50.25;26.25
26185;PMS7003;20067;48.764;9.176;2024-03-07T05:46:20;67.00;54.50;32.25
26185;PMS7003;20067;48.764;9.176;2024-03-07T05:48:46;60.00;51.25;30.00
26185;PMS7003;20067;48.764;9.176;2024-03-07T05:51:15;53.00;49.75;25.50
26185;PMS7003;20067;48.764;9.176;2024-03-07T05:53:41;62.00;52.25;27.50
26185;PMS7003;20067;48.764;9.176;2024-03-07T05:56:07;62.00;54.00;28.00
26185;PMS7003;20067;48.764;9.176;2024-03-07T05:58:33;78.50;57.50;30.50
26185;PMS7003;20067;48.764;9.176;2024-03-07T06:00:59;64.75;54.75;29.00
26185;PMS7003;20067;48.764;9.176;2024-03-07T06:03:24;72.00;57.50;28.75
26185;PMS7003;20067;48.764;9.176;2024-03-07T06:05:50;68.25;56.25;29.00
26185;PMS7003;20067;48.764;9.176;2024-03-07T06:08:19;75.50;62.25;32.50
26185;PMS7003;20067;48.764;9.176;2024-03-07T06:10:46;67.50;57.25;34.00
26185;PMS7003;20067;48.764;9.176;2024-03-07T06:13:13;72.00;55.75;33.00
26185;PMS7003;20067;48.764;9.176;2024-03-07T06:15:42;71.00;56.50;28.00
26185;PMS7003;20067;48.764;9.176;2024-03-07T06:18:09;60.50;54.00;34.00
26185;PMS7003;20067;48.764;9.176;2024-03-07T06:20:42;65.50;58.25;33.25
26185;PMS7003;20067;48.764;9.176;2024-03-07T06:23:08;80.50;61.50;35.75
26185;PMS7003;20067;48.764;9.176;2024-03-07T06:25:36;65.75;55.75;32.00
26185;PMS7003;20067;48.764;9.176;2024-03-07T06:28:12;75.75;57.75;31.00
26185;PMS7003;20067;48.764;9.176;2024-03-07T06:30:39;63.00;54.75;31.50
26185;PMS7003;20067;48.764;9.176;2024-03-07T06:33:06;53.25;46.25;25.75
26185;PMS7003;20067;48.764;9.176;2024-03-07T06:35:32;62.00;49.75;32.00
26185;PMS7003;20067;48.764;9.176;2024-03-07T06:38:02;57.00;53.25;32.75
26185;PMS7003;20067;48.764;9.176;2024-03-07T06:40:29;63.25;52.00;28.75
26185;PMS7003;20067;48.764;9.176;2024-03-07T06:42:54;61.75;51.75;30.50
26185;PMS7003;20067;48.764;9.176;2024-03-07T06:45:21;68.75;57.25;32.75
26185;PMS7003;20067;48.764;9.176;2024-03-07T06:47:49;62.50;52.50;28.25
26185;PMS7003;20067;48.764;9.176;2024-03-07T06:50:17;56.00;41.75;23.25
26185;PMS7003;20067;48.764;9.176;2024-03-07T06:52:45;55.25;48.00;26.00
26185;PMS7003;20067;48.764;9.176;2024-03-07T06:55:12;60.75;49.50;29.25
26185;PMS7003;20067;48.764;9.176;2024-03-07T06:57:45;60.25;51.50;30.00
26185;PMS7003;20067;48.764;9.176;2024-03-07T07:00:11;54.25;50.25;28.00
26185;PMS7003;20067;48.764;9.176;2024-03-07T07:02:39;62.00;50.50;28.00
26185;PMS7003;20067;48.764;9.176;2024-03-07T07:05:06;61.50;48.50;27.75
26185;PMS7003;20067;48.764;9.176;2024-03-07T07:07:38;51.25;46.75;28.50
26185;PMS7003;20067;48.764;9.176;2024-03-07T07:10:06;55.00;46.00;25.25
26185;PMS7003;20067;48.764;9.176;2024-03-07T07:12:36;66.50;49.50;30.50
26185;PMS7003;20067;48.764;9.176;2024-03-07T07:15:02;63.75;53.50;30.00
26185;PMS7003;20067;48.764;9.176;2024-03-07T07:17:29;59.25;51.75;28.00
26185;PMS7003;20067;48.764;9.176;2024-03-07T07:20:04;61.75;47.25;27.25
26185;PMS7003;20067;48.764;9.176;2024-03-07T07:22:38;65.25;52.25;29.00
26185;PMS7003;20067;48.764;9.176;2024-03-07T07:25:05;64.50;49.50;28.00
26185;PMS7003;20067;48.764;9.176;2024-03-07T07:27:38;61.00;54.75;30.00
26185;PMS7003;20067;48.764;9.176;2024-03-07T07:30:08;55.00;48.25;26.00
26185;PMS7003;20067;48.764;9.176;2024-03-07T07:32:35;59.50;47.25;26.00
26185;PMS7003;20067;48.764;9.176;2024-03-07T07:35:02;55.00;52.25;27.00
26185;PMS7003;20067;48.764;9.176;2024-03-07T07:37:28;57.00;43.00;25.25
26185;PMS7003;20067;48.764;9.176;2024-03-07T07:39:53;59.00;47.75;27.00
26185;PMS7003;20067;48.764;9.176;2024-03-07T07:42:19;54.50;47.00;26.00
26185;PMS7003;20067;48.764;9.176;2024-03-07T07:44:45;45.25;40.25;26.00
26185;PMS7003;20067;48.764;9.176;2024-03-07T07:47:10;48.75;41.75;25.00
26185;PMS7003;20067;48.764;9.176;2024-03-07T07:49:37;58.75;47.25;26.75
26185;PMS7003;20067;48.764;9.176;2024-03-07T07:52:04;44.75;44.00;21.25
26185;PMS7003;20067;48.764;9.176;2024-03-07T07:54:31;63.00;50.25;25.00
26185;PMS7003;20067;48.764;9.176;2024-03-07T07:56:57;44.75;40.75;20.00
26185;PMS7003;20067;48.764;9.176;2024-03-07T07:59:22;48.25;36.75;19.00
26185;PMS7003;20067;48.764;9.176;2024-03-07T08:01:48;57.50;47.00;22.00
26185;PMS7003;20067;48.764;9.176;2024-03-07T08:04:15;54.25;44.25;23.25
26185;PMS7003;20067;48.764;9.176;2024-03-07T08:06:40;56.00;46.00;23.50
26185;PMS7003;20067;48.764;9.176;2024-03-07T08:09:06;54.75;44.25;24.50
26185;PMS7003;20067;48.764;9.176;2024-03-07T08:11:34;58.50;46.75;23.25
26185;PMS7003;20067;48.764;9.176;2024-03-07T08:14:02;55.00;44.75;23.25
26185;PMS7003;20067;48.764;9.176;2024-03-07T08:16:28;49.25;42.75;23.00
26185;PMS7003;20067;48.764;9.176;2024-03-07T08:18:54;57.00;44.75;23.50
26185;PMS7003;20067;48.764;9.176;2024-03-07T08:21:21;60.75;43.00;22.00
26185;PMS7003;20067;48.764;9.176;2024-03-07T08:23:48;47.50;39.25;21.75
26185;PMS7003;20067;48.764;9.176;2024-03-07T08:26:13;54.75;41.75;23.75
26185;PMS7003;20067;48.764;9.176;2024-03-07T08:28:40;53.25;43.00;24.50
26185;PMS7003;20067;48.764;9.176;2024-03-07T08:31:06;46.75;37.50;22.25
26185;PMS7003;20067;48.764;9.176;2024-03-07T08:33:32;47.00;40.75;24.25
26185;PMS7003;20067;48.764;9.176;2024-03-07T08:35:58;41.00;37.00;20.25
26185;PMS7003;20067;48.764;9.176;2024-03-07T08:38:24;40.50;35.50;20.00
26185;PMS7003;20067;48.764;9.176;2024-03-07T08:40:50;50.50;43.50;21.00
26185;PMS7003;20067;48.764;9.176;2024-03-07T08:43:15;45.75;43.00;21.50
26185;PMS7003;20067;48.764;9.176;2024-03-07T08:45:41;50.50;40.50;19.75
26185;PMS7003;20067;48.764;9.176;2024-03-07T08:48:06;40.00;38.50;20.25
26185;PMS7003;20067;48.764;9.176;2024-03-07T08:50:33;48.00;43.50;24.00
26185;PMS7003;20067;48.764;9.176;2024-03-07T08:53:00;48.25;43.25;22.25
26185;PMS7003;20067;48.764;9.176;2024-03-07T08:55:26;46.50;38.75;19.00
26185;PMS7003;20067;48.764;9.176;2024-03-07T08:57:52;42.25;34.25;20.75
26185;PMS7003;20067;48.764;9.176;2024-03-07T09:00:18;46.50;38.50;20.00
26185;PMS7003;20067;48.764;9.176;2024-03-07T09:02:56;41.25;37.50;19.75
26185;PMS7003;20067;48.764;9.176;2024-03-07T09:05:23;48.25;39.00;19.50
26185;PMS7003;20067;48.764;9.176;2024-03-07T09:07:50;37.00;32.25;17.00
26185;PMS7003;20067;48.764;9.176;2024-03-07T09:10:16;47.00;44.25;23.00
26185;PMS7003;20067;48.764;9.176;2024-03-07T09:12:43;45.00;34.50;20.75
26185;PMS7003;20067;48.764;9.176;2024-03-07T09:15:09;45.75;39.00;23.50
26185;PMS7003;20067;48.764;9.176;2024-03-07T09:17:36;41.00;33.00;19.25
26185;PMS7003;20067;48.764;9.176;2024-03-07T09:20:02;42.00;35.50;20.00
26185;PMS7003;20067;48.764;9.176;2024-03-07T09:22:30;47.25;39.00;24.00
26185;PMS7003;20067;48.764;9.176;2024-03-07T09:24:56;45.75;40.25;20.75
26185;PMS7003;20067;48.764;9.176;2024-03-07T09:27:22;52.00;42.00;20.50
26185;PMS7003;20067;48.764;9.176;2024-03-07T09:29:47;47.75;40.75;21.25
26185;PMS7003;20067;48.764;9.176;2024-03-07T09:32:13;45.50;38.75;21.50
26185;PMS7003;20067;48.764;9.176;2024-03-07T09:34:39;55.25;45.00;25.00
26185;PMS7003;20067;48.764;9.176;2024-03-07T09:37:05;48.50;37.75;21.25
26185;PMS7003;20067;48.764;9.176;2024-03-07T09:39:34;47.00;37.50;22.50
26185;PMS7003;20067;48.764;9.176;2024-03-07T09:42:03;52.75;43.00;24.00
26185;PMS7003;20067;48.764;9.176;2024-03-07T09:44:33;42.00;38.25;21.75
26185;PMS7003;20067;48.764;9.176;2024-03-07T09:47:00;46.75;38.75;23.00
26185;PMS7003;20067;48.764;9.176;2024-03-07T09:49:28;52.00;41.50;21.25
26185;PMS7003;20067;48.764;9.176;2024-03-07T09:51:54;49.50;39.00;21.00
26185;PMS7003;20067;48.764;9.176;2024-03-07T09:54:22;36.50;35.00;19.25
26185;PMS7003;20067;48.764;9.176;2024-03-07T09:56:52;49.25;42.50;23.25
26185;PMS7003;20067;48.764;9.176;2024-03-07T09:59:19;42.25;36.25;21.75
26185;PMS7003;20067;48.764;9.176;2024-03-07T10:01:48;48.50;37.00;21.75
26185;PMS7003;20067;48.764;9.176;2024-03-07T10:04:16;41.00;34.75;21.75
26185;PMS7003;20067;48.764;9.176;2024-03-07T10:06:47;48.00;40.00;22.00
26185;PMS7003;20067;48.764;9.176;2024-03-07T10:09:14;49.25;38.75;21.00
26185;PMS7003;20067;48.764;9.176;2024-03-07T10:11:41;38.00;35.75;20.00
26185;PMS7003;20067;48.764;9.176;2024-03-07T10:14:09;41.75;37.75;21.50
26185;PMS7003;20067;48.764;9.176;2024-03-07T10:16:35;45.75;40.50;23.75
26185;PMS7003;20067;48.764;9.176;2024-03-07T10:19:04;47.50;40.00;22.25
26185;PMS7003;20067;48.764;9.176;2024-03-07T10:21:30;36.50;34.75;21.25
26185;PMS7003;20067;48.764;9.176;2024-03-07T10:24:04;50.75;38.00;21.75
26185;PMS7003;20067;48.764;9.176;2024-03-07T10:26:34;37.50;32.75;19.00
26185;PMS7003;20067;48.764;9.176;2024-03-07T10:29:00;43.00;36.00;20.00
26185;PMS7003;20067;48.764;9.176;2024-03-07T10:31:30;36.25;31.75;18.00
26185;PMS7003;20067;48.764;9.176;2024-03-07T10:34:02;40.75;32.50;20.75
26185;PMS7003;20067;48.764;9.176;2024-03-07T10:36:32;44.25;37.50;21.00
26185;PMS7003;20067;48.764;9.176;2024-03-07T10:39:00;45.75;36.00;22.00
26185;PMS7003;20067;48.764;9.176;2024-03-07T10:41:42;43.75;38.75;21.50
26185;PMS7003;20067;48.764;9.176;2024-03-07T10:44:11;39.50;32.75;20.25
26185;PMS7003;20067;48.764;9.176;2024-03-07T10:46:41;39.50;35.25;21.00
26185;PMS7003;20067;48.764;9.176;2024-03-07T10:49:12;48.25;37.00;20.75
26185;PMS7003;20067;48.764;9.176;2024-03-07T10:51:41;48.25;39.50;22.25
26185;PMS7003;20067;48.764;9.176;2024-03-07T10:54:22;42.50;36.00;19.00
26185;PMS7003;20067;48.764;9.176;2024-03-07T10:57:15;48.25;41.00;25.00
26185;PMS7003;20067;48.764;9.176;2024-03-07T10:59:49;50.00;46.00;22.00
26185;PMS7003;20067;48.764;9.176;2024-03-07T11:02:24;42.25;40.25;22.50
26185;PMS7003;20067;48.764;9.176;2024-03-07T11:04:58;39.25;33.50;18.00
26185;PMS7003;20067;48.764;9.176;2024-03-07T11:07:25;45.00;35.50;20.00
26185;PMS7003;20067;48.764;9.176;2024-03-07T11:09:52;48.50;45.75;27.25
26185;PMS7003;20067;48.764;9.176;2024-03-07T11:12:23;46.50;37.50;24.50
26185;PMS7003;20067;48.764;9.176;2024-03-07T11:14:52;51.75;40.75;22.50
26185;PMS7003;20067;48.764;9.176;2024-03-07T11:17:20;45.25;38.75;23.00
26185;PMS7003;20067;48.764;9.176;2024-03-07T11:19:47;43.25;37.50;22.00
26185;PMS7003;20067;48.764;9.176;2024-03-07T11:22:32;48.50;41.50;22.50
26185;PMS7003;20067;48.764;9.176;2024-03-07T11:25:02;49.25;43.00;23.00
26185;PMS7003;20067;48.764;9.176;2024-03-07T11:27:32;50.00;40.25;23.00
26185;PMS7003;20067;48.764;9.176;2024-03-07T11:30:04;49.25;40.25;23.50
26185;PMS7003;20067;48.764;9.176;2024-03-07T11:32:37;47.75;45.50;23.50
26185;PMS7003;20067;48.764;9.176;2024-03-07T11:35:12;53.75;45.00;24.50
26185;PMS7003;20067;48.764;9.176;2024-03-07T11:37:47;48.25;40.25;22.50
26185;PMS7003;20067;48.764;9.176;2024-03-07T11:40:13;43.00;39.50;22.75
26185;PMS7003;20067;48.764;9.176;2024-03-07T11:42:47;45.50;39.50;22.50
26185;PMS7003;20067;48.764;9.176;2024-03-07T11:45:14;49.00;42.00;23.50
26185;PMS7003;20067;48.764;9.176;2024-03-07T11:47:50;44.25;37.50;21.25
26185;PMS7003;20067;48.764;9.176;2024-03-07T11:50:40;47.75;40.50;24.75
26185;PMS7003;20067;48.764;9.176;2024-03-07T11:53:07;50.00;40.25;22.50
26185;PMS7003;20067;48.764;9.176;2024-03-07T11:55:43;43.75;39.00;23.75
26185;PMS7003;20067;48.764;9.176;2024-03-07T12:00:41;47.50;39.75;23.25
26185;PMS7003;20067;48.764;9.176;2024-03-07T12:03:14;53.00;43.25;22.75
26185;PMS7003;20067;48.764;9.176;2024-03-07T12:05:46;50.50;42.00;23.00
26185;PMS7003;20067;48.764;9.176;2024-03-07T12:08:16;46.75;39.50;22.25
26185;PMS7003;20067;48.764;9.176;2024-03-07T12:10:42;47.00;42.25;22.00
26185;PMS7003;20067;48.764;9.176;2024-03-07T12:13:09;48.50;38.25;22.00
26185;PMS7003;20067;48.764;9.176;2024-03-07T12:15:44;50.25;43.75;22.00
26185;PMS7003;20067;48.764;9.176;2024-03-07T12:18:11;51.00;46.25;23.75
26185;PMS7003;20067;48.764;9.176;2024-03-07T12:20:42;42.00;35.25;22.00
26185;PMS7003;20067;48.764;9.176;2024-03-07T12:23:11;45.00;42.00;23.75
26185;PMS7003;20067;48.764;9.176;2024-03-07T12:25:38;52.25;42.75;24.00
26185;PMS7003;20067;48.764;9.176;2024-03-07T12:28:11;48.00;41.00;23.00
26185;PMS7003;20067;48.764;9.176;2024-03-07T12:30:48;49.75;44.00;24.25
26185;PMS7003;20067;48.764;9.176;2024-03-07T12:33:16;41.50;36.00;23.00
26185;PMS7003;20067;48.764;9.176;2024-03-07T12:35:52;46.00;41.50;24.75
26185;PMS7003;20067;48.764;9.176;2024-03-07T12:38:25;41.50;39.00;24.50
26185;PMS7003;20067;48.764;9.176;2024-03-07T12:41:07;48.75;44.00;24.00
26185;PMS7003;20067;48.764;9.176;2024-03-07T12:43:40;54.25;46.00;23.00
26185;PMS7003;20067;48.764;9.176;2024-03-07T12:46:11;50.25;39.00;21.00
26185;PMS7003;20067;48.764;9.176;2024-03-07T12:48:40;52.50;46.00;23.00
26185;PMS7003;20067;48.764;9.176;2024-03-07T12:51:06;59.00;49.50;25.00
26185;PMS7003;20067;48.764;9.176;2024-03-07T12:53:32;47.50;45.50;24.00
26185;PMS7003;20067;48.764;9.176;2024-03-07T12:56:00;51.25;39.75;23.50
26185;PMS7003;20067;48.764;9.176;2024-03-07T12:58:26;56.25;47.00;26.25
26185;PMS7003;20067;48.764;9.176;2024-03-07T13:00:55;52.75;44.50;26.25
26185;PMS7003;20067;48.764;9.176;2024-03-07T13:03:21;51.00;42.50;24.25
26185;PMS7003;20067;48.764;9.176;2024-03-07T13:05:47;56.25;47.25;24.25
26185;PMS7003;20067;48.764;9.176;2024-03-07T13:08:12;51.75;46.25;24.25
26185;PMS7003;20067;48.764;9.176;2024-03-07T13:10:39;50.50;43.00;24.50
26185;PMS7003;20067;48.764;9.176;2024-03-07T13:13:06;47.75;44.00;24.75
26185;PMS7003;20067;48.764;9.176;2024-03-07T13:15:31;55.00;47.75;27.75
26185;PMS7003;20067;48.764;9.176;2024-03-07T13:17:57;49.75;45.25;24.00
26185;PMS7003;20067;48.764;9.176;2024-03-07T13:20:22;52.00;44.00;22.50
26185;PMS7003;20067;48.764;9.176;2024-03-07T13:22:51;47.00;40.75;23.75
26185;PMS7003;20067;48.764;9.176;2024-03-07T13:25:22;55.00;47.25;27.00
26185;PMS7003;20067;48.764;9.176;2024-03-07T13:27:54;53.50;42.75;24.75
26185;PMS7003;20067;48.764;9.176;2024-03-07T13:30:25;46.00;42.00;24.25
26185;PMS7003;20067;48.764;9.176;2024-03-07T13:32:55;46.50;42.00;25.50
26185;PMS7003;20067;48.764;9.176;2024-03-07T13:35:24;52.75;41.00;24.00
26185;PMS7003;20067;48.764;9.176;2024-03-07T13:37:51;44.75;41.75;23.25
26185;PMS7003;20067;48.764;9.176;2024-03-07T13:40:21;45.00;40.00;24.00
26185;PMS7003;20067;48.764;9.176;2024-03-07T13:42:51;54.75;44.50;27.75
26185;PMS7003;20067;48.764;9.176;2024-03-07T13:45:24;56.50;49.25;26.50
26185;PMS7003;20067;48.764;9.176;2024-03-07T13:47:52;56.00;45.25;24.50
26185;PMS7003;20067;48.764;9.176;2024-03-07T13:50:23;43.25;39.75;22.00
26185;PMS7003;20067;48.764;9.176;2024-03-07T13:52:50;49.25;44.25;24.00
26185;PMS7003;20067;48.764;9.176;2024-03-07T13:58:09;53.50;42.75;25.00